Harmon, Louisiana
Current Conditions -  °F | °C
As of 2:55 PM on Tuesday 21 Oct 2014 (Local Time) from KIER Reporting Station
Clear Clear  
Wind Chill: 82°   Ceiling: Unl
Heat Index: 83°   Visibility: 10mi
Dew Point: 63°   Wind: 0mph
Humidity: 53%   Direction: NA
Pressure: 30.03"   Gusts: NA
Location:  32.07°N, 93.43°W
Report Text: KIER 211955Z AUTO 00000KT 10SM CLR 28/17 A3003 RMK AO2 T02750171
Loading
Personal Weather Stations






























Interactive Weather Map
Tropical Storm Tracking
New forecast layout! Learn more

10-Day Weather Forecast

Advertisements
Track Severe Weather on mobile